Raceland, Louisiana
Current Conditions -  °F | °C
As of 2:50 PM on Friday 28 Nov 2014 (Local Time) from KHUM Reporting Station
Clear Clear  
Wind Chill: 63°   Ceiling: Unl
Heat Index: 63°   Visibility: 7mi
Dew Point: 41°   Wind: 5mph
Humidity: 45%   Direction: 130°SE
Pressure: 30.3"   Gusts: NA
Location:  29.73°N, 90.61°W
Report Text: KHUM 282050Z 13004KT 7SM SKC 17/05 A3030 RMK RY12/30 CLOSED ATIS T VA/RY18 DV
Loading
Personal Weather Stations






























Interactive Weather Map New forecast layout! Learn more

10-Day Weather Forecast

Advertisements
Track Severe Weather on mobile